Time;durP1;ratioP1;P1;durP2;ratioP2;P2;SDS_P1;SDS_P2;PMS_P1;PMS_P2;Temp;Humidity;BMP_temperature;BMP_pressure;BME280_temperature;BME280_humidity;BME280_pressure;Samples;Min_cycle;Max_cycle;Signal;HPM_P1;HPM_P2
2021/01/13 00:02:25;;;;;;;2.13;1.93;;;;;;;;;;4777812;29;20247;-79
2021/01/13 00:04:53;;;;;;;2.50;1.73;;;;;;;;;;4772426;29;20236;-79
2021/01/13 00:07:20;;;;;;;2.00;1.80;;;;;;;;;;4767636;29;20319;-78
2021/01/13 00:09:49;;;;;;;2.20;1.70;;;;;;;;;;4785330;29;20245;-79
2021/01/13 00:12:17;;;;;;;2.20;2.00;;;;;;;;;;4770075;29;20235;-79
2021/01/13 00:14:44;;;;;;;1.90;1.60;;;;;;;;;;4794206;29;20243;-78
2021/01/13 00:17:12;;;;;;;2.47;2.00;;;;;;;;;;4793090;29;20235;-78
2021/01/13 00:19:40;;;;;;;2.87;2.10;;;;;;;;;;4787132;29;20244;-80
2021/01/13 00:22:08;;;;;;;2.57;2.03;;;;;;;;;;4777293;29;20233;-80
2021/01/13 00:24:36;;;;;;;2.73;2.10;;;;;;;;;;4794783;29;20899;-78
2021/01/13 00:27:05;;;;;;;3.03;2.00;;;;;;;;;;4771897;29;20233;-77
2021/01/13 00:29:33;;;;;;;2.93;2.17;;;;;;;;;;4786342;29;20727;-78
2021/01/13 00:32:01;;;;;;;3.07;2.30;;;;;;;;;;4774179;29;20252;-79
2021/01/13 00:34:29;;;;;;;3.47;2.47;;;;;;;;;;4785809;29;20245;-79
2021/01/13 00:36:57;;;;;;;2.83;2.27;;;;;;;;;;4773126;29;20220;-78
2021/01/13 00:39:24;;;;;;;3.17;2.17;;;;;;;;;;4789431;29;20292;-78
2021/01/13 00:41:52;;;;;;;4.70;2.90;;;;;;;;;;4775255;29;20248;-78
2021/01/13 00:44:21;;;;;;;3.57;2.50;;;;;;;;;;4775806;29;20255;-78
2021/01/13 00:46:48;;;;;;;2.50;2.30;;;;;;;;;;4786477;29;20237;-78
2021/01/13 00:49:16;;;;;;;2.80;2.23;;;;;;;;;;4786288;29;20240;-79
2021/01/13 00:51:45;;;;;;;3.40;2.50;;;;;;;;;;4773150;29;20881;-79
2021/01/13 00:54:13;;;;;;;4.83;2.93;;;;;;;;;;4776820;29;20241;-78
2021/01/13 00:56:42;;;;;;;3.40;2.70;;;;;;;;;;4794235;29;20237;-78
2021/01/13 00:59:11;;;;;;;4.00;2.70;;;;;;;;;;4781959;29;20325;-80
2021/01/13 01:01:40;;;;;;;3.33;2.63;;;;;;;;;;4808305;29;20224;-79
2021/01/13 01:04:09;;;;;;;3.20;2.40;;;;;;;;;;4773475;29;20237;-80
2021/01/13 01:06:38;;;;;;;5.30;2.90;;;;;;;;;;4773707;29;20241;-79
2021/01/13 01:09:06;;;;;;;3.37;2.70;;;;;;;;;;4773027;29;20255;-77
2021/01/13 01:11:36;;;;;;;4.47;3.30;;;;;;;;;;4773805;29;20241;-79
2021/01/13 01:14:04;;;;;;;4.33;2.93;;;;;;;;;;4773272;29;20236;-78
2021/01/13 01:16:33;;;;;;;4.60;2.97;;;;;;;;;;4772764;29;20247;-79
2021/01/13 01:19:03;;;;;;;3.57;2.60;;;;;;;;;;4772039;29;20607;-78
2021/01/13 01:21:31;;;;;;;4.83;3.13;;;;;;;;;;4775259;29;20233;-79
2021/01/13 01:23:59;;;;;;;5.10;3.50;;;;;;;;;;4772903;29;20245;-79
2021/01/13 01:26:27;;;;;;;3.77;3.10;;;;;;;;;;4770988;29;20237;-79
2021/01/13 01:28:55;;;;;;;3.83;3.00;;;;;;;;;;4778786;29;20240;-79
2021/01/13 01:31:23;;;;;;;4.40;2.63;;;;;;;;;;4779663;29;20299;-77
2021/01/13 01:33:51;;;;;;;3.53;2.90;;;;;;;;;;4773370;29;21316;-81
2021/01/13 01:36:19;;;;;;;5.07;3.30;;;;;;;;;;4768941;29;20750;-81
2021/01/13 01:38:47;;;;;;;4.50;3.23;;;;;;;;;;4770887;29;20796;-79
2021/01/13 01:41:15;;;;;;;5.20;3.13;;;;;;;;;;4771323;29;21467;-78
2021/01/13 01:43:44;;;;;;;3.93;2.90;;;;;;;;;;4787366;29;20241;-79
2021/01/13 01:46:12;;;;;;;6.57;3.10;;;;;;;;;;4770793;29;20233;-78
2021/01/13 01:48:49;;;;;;;3.73;3.00;;;;;;;;;;4769878;29;20224;-78
2021/01/13 01:51:22;;;;;;;4.17;3.00;;;;;;;;;;4788230;29;20742;-81
2021/01/13 01:54:06;;;;;;;4.13;3.07;;;;;;;;;;4791149;29;20243;-79
2021/01/13 01:56:37;;;;;;;4.83;3.10;;;;;;;;;;4770792;29;20259;-77
2021/01/13 01:59:06;;;;;;;3.83;2.73;;;;;;;;;;4773270;29;20637;-79
2021/01/13 02:01:36;;;;;;;3.67;2.87;;;;;;;;;;4787232;29;20615;-80
2021/01/13 02:04:15;;;;;;;4.20;3.23;;;;;;;;;;4775883;29;20249;-78
2021/01/13 02:07:13;;;;;;;4.30;3.17;;;;;;;;;;4787362;29;20243;-79
2021/01/13 02:09:41;;;;;;;4.40;2.80;;;;;;;;;;4767187;29;20599;-79
2021/01/13 02:12:10;;;;;;;3.90;2.77;;;;;;;;;;4767904;29;20235;-79
2021/01/13 02:14:41;;;;;;;4.47;3.10;;;;;;;;;;4769822;29;20233;-79
2021/01/13 02:17:10;;;;;;;5.23;2.90;;;;;;;;;;4781578;29;21491;-79
2021/01/13 02:20:10;;;;;;;3.97;2.90;;;;;;;;;;4765693;29;20237;-79
2021/01/13 02:22:52;;;;;;;4.53;2.90;;;;;;;;;;4765306;29;20360;-79
2021/01/13 02:26:05;;;;;;;4.67;2.57;;;;;;;;;;4771809;29;20229;-79
2021/01/13 02:28:59;;;;;;;4.23;3.00;;;;;;;;;;4764483;29;20351;-79
2021/01/13 02:31:48;;;;;;;3.70;2.60;;;;;;;;;;4760064;29;20630;-80
2021/01/13 02:34:22;;;;;;;3.40;2.77;;;;;;;;;;4785393;29;20252;-80
2021/01/13 02:37:24;;;;;;;4.10;2.97;;;;;;;;;;4773919;29;20240;-80
2021/01/13 02:39:53;;;;;;;5.57;3.10;;;;;;;;;;4765794;29;20277;-79
2021/01/13 02:42:24;;;;;;;3.83;2.90;;;;;;;;;;4771016;29;20231;-79
2021/01/13 02:45:08;;;;;;;4.27;3.00;;;;;;;;;;4785094;29;20237;-80
2021/01/13 02:48:04;;;;;;;5.63;3.77;;;;;;;;;;4771633;29;20235;-79
2021/01/13 02:50:35;;;;;;;5.50;3.93;;;;;;;;;;4793146;29;20235;-80
2021/01/13 02:53:49;;;;;;;6.10;3.87;;;;;;;;;;4809784;29;20251;-81
2021/01/13 02:56:25;;;;;;;6.20;3.50;;;;;;;;;;4803874;29;20684;-81
2021/01/13 02:59:04;;;;;;;6.40;4.17;;;;;;;;;;4804150;29;20260;-80
2021/01/13 03:01:35;;;;;;;5.57;3.70;;;;;;;;;;4791887;29;20233;-80
2021/01/13 03:04:05;;;;;;;5.07;3.63;;;;;;;;;;4781401;30;20239;-79
2021/01/13 03:06:37;;;;;;;4.70;3.23;;;;;;;;;;4790132;29;20244;-79
2021/01/13 03:09:06;;;;;;;5.90;3.63;;;;;;;;;;4791761;29;20232;-79
2021/01/13 03:11:35;;;;;;;5.30;4.13;;;;;;;;;;4793031;29;20240;-79
2021/01/13 03:14:14;;;;;;;4.57;3.20;;;;;;;;;;4791923;29;20244;-80
2021/01/13 03:16:54;;;;;;;5.93;3.77;;;;;;;;;;4762633;30;20251;-79
2021/01/13 03:19:43;;;;;;;6.47;4.07;;;;;;;;;;4784756;29;20236;-78
2021/01/13 03:22:17;;;;;;;4.87;3.47;;;;;;;;;;4773100;29;20236;-78
2021/01/13 03:24:50;;;;;;;6.00;4.37;;;;;;;;;;4769829;29;20248;-78
2021/01/13 03:27:20;;;;;;;5.90;4.03;;;;;;;;;;4786066;29;20236;-79
2021/01/13 03:29:48;;;;;;;5.83;3.83;;;;;;;;;;4790009;29;20241;-79
2021/01/13 03:32:19;;;;;;;4.33;3.33;;;;;;;;;;4793323;29;20257;-80
2021/01/13 03:35:01;;;;;;;5.33;4.00;;;;;;;;;;4794092;29;20244;-81
2021/01/13 03:37:38;;;;;;;6.73;3.93;;;;;;;;;;4792121;29;20235;-79
2021/01/13 03:40:07;;;;;;;6.30;3.87;;;;;;;;;;4810018;29;20229;-80
2021/01/13 03:42:36;;;;;;;5.63;3.60;;;;;;;;;;4802424;29;20252;-79
2021/01/13 03:45:07;;;;;;;6.43;4.50;;;;;;;;;;4775669;29;20613;-79
2021/01/13 03:48:07;;;;;;;5.57;3.77;;;;;;;;;;4775433;29;20233;-80
2021/01/13 03:50:37;;;;;;;5.30;3.53;;;;;;;;;;4786379;29;20233;-79
2021/01/13 03:53:08;;;;;;;5.07;3.33;;;;;;;;;;4775969;29;20260;-80
2021/01/13 03:55:38;;;;;;;4.57;3.23;;;;;;;;;;4780141;29;20656;-79
2021/01/13 03:58:42;;;;;;;9.67;3.77;;;;;;;;;;4778192;29;20409;-79
2021/01/13 04:01:45;;;;;;;6.03;3.77;;;;;;;;;;4771350;29;20240;-79
2021/01/13 04:04:24;;;;;;;6.37;4.30;;;;;;;;;;4782386;29;20247;-79
2021/01/13 04:06:59;;;;;;;5.83;4.37;;;;;;;;;;4811459;29;20998;-79
2021/01/13 04:09:28;;;;;;;5.07;3.50;;;;;;;;;;4811377;29;20658;-79
2021/01/13 04:12:10;;;;;;;6.27;3.97;;;;;;;;;;4796959;29;20237;-78
2021/01/13 04:14:54;;;;;;;6.10;3.87;;;;;;;;;;4809534;29;20236;-79
2021/01/13 04:17:23;;;;;;;5.80;4.07;;;;;;;;;;4802078;29;20248;-80
2021/01/13 04:19:53;;;;;;;5.80;3.97;;;;;;;;;;4771338;29;20241;-80
2021/01/13 04:22:26;;;;;;;5.67;3.70;;;;;;;;;;4769301;29;20267;-80
2021/01/13 04:24:55;;;;;;;6.27;3.70;;;;;;;;;;4756096;29;20873;-79
2021/01/13 04:27:23;;;;;;;5.63;4.07;;;;;;;;;;4761557;29;20229;-80
2021/01/13 04:29:52;;;;;;;6.00;3.63;;;;;;;;;;4771581;29;20234;-79
2021/01/13 04:32:20;;;;;;;7.07;4.53;;;;;;;;;;4767278;29;20237;-80
2021/01/13 04:34:49;;;;;;;6.57;4.37;;;;;;;;;;4764847;30;20237;-80
2021/01/13 04:37:19;;;;;;;7.27;4.30;;;;;;;;;;4771603;29;20241;-80
2021/01/13 04:39:48;;;;;;;5.90;4.47;;;;;;;;;;4772945;30;20244;-80
2021/01/13 04:42:21;;;;;;;6.43;3.83;;;;;;;;;;4787123;29;20229;-79
2021/01/13 04:45:06;;;;;;;7.43;3.90;;;;;;;;;;4772872;29;20241;-80
2021/01/13 04:47:50;;;;;;;5.13;3.37;;;;;;;;;;4764533;30;20228;-79
2021/01/13 04:50:20;;;;;;;5.00;3.50;;;;;;;;;;4772048;29;20233;-79
2021/01/13 04:52:50;;;;;;;5.30;3.37;;;;;;;;;;4771588;29;20299;-79
2021/01/13 04:55:23;;;;;;;4.63;3.57;;;;;;;;;;4772744;29;20239;-79
2021/01/13 04:58:31;;;;;;;5.50;3.50;;;;;;;;;;4769971;29;20260;-80
2021/01/13 05:01:39;;;;;;;3.77;3.10;;;;;;;;;;4736659;30;20619;-80
2021/01/13 05:04:15;;;;;;;4.93;3.43;;;;;;;;;;4778113;29;20244;-79
2021/01/13 05:06:48;;;;;;;5.87;3.90;;;;;;;;;;4773453;29;20314;-79
2021/01/13 05:09:18;;;;;;;6.33;3.83;;;;;;;;;;4785281;29;20232;-79
2021/01/13 05:11:47;;;;;;;5.43;3.47;;;;;;;;;;4772142;29;20244;-79
2021/01/13 05:14:16;;;;;;;5.90;3.67;;;;;;;;;;4771829;29;20732;-79
2021/01/13 05:17:03;;;;;;;5.60;4.00;;;;;;;;;;4774091;29;20727;-79
2021/01/13 05:20:01;;;;;;;7.10;4.10;;;;;;;;;;4771412;29;20236;-79
2021/01/13 05:22:33;;;;;;;5.43;4.10;;;;;;;;;;4795225;29;20249;-80
2021/01/13 05:25:05;;;;;;;6.17;3.50;;;;;;;;;;4779157;29;20236;-79
2021/01/13 05:27:58;;;;;;;6.00;3.50;;;;;;;;;;4795613;29;20225;-79
2021/01/13 05:30:31;;;;;;;6.97;3.80;;;;;;;;;;4772888;29;21062;-79
2021/01/13 05:33:01;;;;;;;5.87;3.77;;;;;;;;;;4761490;30;20323;-79
2021/01/13 05:35:30;;;;;;;5.67;3.57;;;;;;;;;;4772656;29;20831;-79
2021/01/13 05:38:25;;;;;;;6.10;3.73;;;;;;;;;;4773004;29;20221;-79
2021/01/13 05:40:55;;;;;;;5.67;3.67;;;;;;;;;;4724247;29;20241;-79
2021/01/13 05:43:24;;;;;;;6.77;4.10;;;;;;;;;;4759407;30;20248;-79
2021/01/13 05:45:52;;;;;;;6.77;3.53;;;;;;;;;;4772228;29;20237;-78
2021/01/13 05:48:24;;;;;;;7.77;4.17;;;;;;;;;;4767117;29;20244;-80
2021/01/13 05:50:54;;;;;;;6.00;4.17;;;;;;;;;;4759316;30;20800;-80
2021/01/13 05:53:26;;;;;;;5.50;3.77;;;;;;;;;;4765931;29;20228;-81
2021/01/13 05:55:56;;;;;;;7.23;4.00;;;;;;;;;;4791292;29;21031;-80
2021/01/13 05:58:26;;;;;;;7.20;4.63;;;;;;;;;;4788005;29;20247;-81
2021/01/13 06:00:57;;;;;;;6.23;3.97;;;;;;;;;;4788179;29;20237;-81
2021/01/13 06:03:28;;;;;;;6.17;4.20;;;;;;;;;;4785994;29;20244;-80
2021/01/13 06:05:58;;;;;;;9.93;4.50;;;;;;;;;;4785736;29;20229;-80
2021/01/13 06:08:30;;;;;;;6.87;3.77;;;;;;;;;;4773113;29;20916;-80
2021/01/13 06:11:01;;;;;;;6.40;4.33;;;;;;;;;;4772706;29;20233;-80
2021/01/13 06:13:32;;;;;;;5.90;3.90;;;;;;;;;;4786299;29;20988;-81
2021/01/13 06:16:03;;;;;;;4.97;3.57;;;;;;;;;;4771427;29;20233;-79
2021/01/13 06:18:33;;;;;;;7.27;4.07;;;;;;;;;;4764050;29;20256;-80
2021/01/13 06:21:09;;;;;;;6.07;3.60;;;;;;;;;;4781481;29;20268;-78
2021/01/13 06:23:48;;;;;;;6.13;3.53;;;;;;;;;;4774741;29;20243;-80
2021/01/13 06:26:18;;;;;;;8.23;4.87;;;;;;;;;;4771932;29;20232;-78
2021/01/13 06:29:30;;;;;;;6.47;4.07;;;;;;;;;;4774309;29;20240;-79
2021/01/13 06:32:03;;;;;;;6.03;4.00;;;;;;;;;;4751514;30;20237;-81
2021/01/13 06:34:39;;;;;;;5.17;3.20;;;;;;;;;;4770768;29;20244;-79
2021/01/13 06:37:18;;;;;;;4.77;3.13;;;;;;;;;;4784663;29;20232;-79
2021/01/13 06:39:47;;;;;;;5.20;3.57;;;;;;;;;;4770936;30;20239;-81
2021/01/13 06:42:28;;;;;;;4.83;3.50;;;;;;;;;;4763842;29;20229;-79
2021/01/13 06:44:56;;;;;;;4.53;2.70;;;;;;;;;;4770453;29;20232;-78
2021/01/13 06:47:24;;;;;;;5.10;2.80;;;;;;;;;;4774313;29;20250;-79
2021/01/13 06:49:52;;;;;;;6.63;3.03;;;;;;;;;;4755574;29;20255;-78
2021/01/13 06:52:30;;;;;;;5.83;3.20;;;;;;;;;;4771271;29;20232;-77
2021/01/13 06:54:59;;;;;;;4.27;2.30;;;;;;;;;;4770012;29;20236;-79
2021/01/13 06:57:29;;;;;;;3.30;2.37;;;;;;;;;;4765604;29;20240;-79
2021/01/13 06:59:58;;;;;;;3.93;2.30;;;;;;;;;;4770382;29;20500;-80
2021/01/13 07:02:33;;;;;;;5.63;3.33;;;;;;;;;;4791907;29;20739;-80
2021/01/13 07:05:01;;;;;;;4.90;2.73;;;;;;;;;;4783947;29;20236;-78
2021/01/13 07:07:29;;;;;;;6.07;2.70;;;;;;;;;;4801667;29;20233;-77
2021/01/13 07:09:57;;;;;;;3.83;2.33;;;;;;;;;;4798688;29;20245;-78
2021/01/13 07:12:26;;;;;;;4.03;2.50;;;;;;;;;;4787348;29;20680;-79
2021/01/13 07:14:56;;;;;;;5.23;2.53;;;;;;;;;;4782059;29;20248;-80
2021/01/13 07:17:29;;;;;;;4.10;2.60;;;;;;;;;;4782286;29;20227;-79
2021/01/13 07:19:58;;;;;;;3.43;2.40;;;;;;;;;;4779143;29;20244;-80
2021/01/13 07:22:26;;;;;;;5.07;2.47;;;;;;;;;;4764851;29;20239;-80
2021/01/13 07:24:54;;;;;;;5.03;2.03;;;;;;;;;;4785851;29;20915;-80
2021/01/13 07:27:23;;;;;;;4.53;2.30;;;;;;;;;;4785020;29;20236;-80
2021/01/13 07:29:51;;;;;;;3.27;2.20;;;;;;;;;;4783485;29;20229;-79
2021/01/13 07:32:28;;;;;;;3.77;2.43;;;;;;;;;;4783074;29;20243;-80
2021/01/13 07:35:05;;;;;;;4.87;2.77;;;;;;;;;;4788571;29;20233;-78
2021/01/13 07:37:38;;;;;;;3.63;2.30;;;;;;;;;;4783354;29;20239;-80
2021/01/13 07:40:36;;;;;;;4.00;2.30;;;;;;;;;;4776680;29;20771;-78
2021/01/13 07:43:06;;;;;;;5.07;2.87;;;;;;;;;;4769321;29;20251;-80
2021/01/13 07:45:42;;;;;;;3.40;2.67;;;;;;;;;;4785053;29;20248;-80
2021/01/13 07:49:00;;;;;;;3.77;2.47;;;;;;;;;;4766688;29;21242;-79
2021/01/13 07:51:33;;;;;;;3.90;2.40;;;;;;;;;;4755776;29;20241;-78
2021/01/13 07:54:07;;;;;;;39.07;5.27;;;;;;;;;;4782345;29;20267;-78
2021/01/13 07:56:36;;;;;;;35.73;4.27;;;;;;;;;;4777301;29;20236;-80
2021/01/13 07:59:48;;;;;;;3.93;2.27;;;;;;;;;;4765799;29;20272;-80
2021/01/13 08:03:12;;;;;;;4.80;2.20;;;;;;;;;;4770958;29;20251;-80
2021/01/13 08:06:18;;;;;;;4.77;2.17;;;;;;;;;;4765987;29;20243;-78
2021/01/13 08:09:05;;;;;;;2.70;2.03;;;;;;;;;;4765391;29;20240;-78
2021/01/13 08:12:09;;;;;;;3.03;2.37;;;;;;;;;;4780759;29;20253;-81
2021/01/13 08:15:00;;;;;;;4.40;2.60;;;;;;;;;;4779160;29;20239;-79
2021/01/13 08:17:39;;;;;;;3.83;2.50;;;;;;;;;;4774296;29;20233;-78
2021/01/13 08:20:39;;;;;;;5.53;2.00;;;;;;;;;;4779352;29;20229;-79
2021/01/13 08:23:10;;;;;;;3.53;2.40;;;;;;;;;;4790898;29;20236;-79
2021/01/13 08:25:42;;;;;;;4.03;2.40;;;;;;;;;;4799284;29;20220;-80
2021/01/13 08:28:12;;;;;;;3.03;2.00;;;;;;;;;;4800720;29;21253;-79
2021/01/13 08:30:41;;;;;;;3.53;2.20;;;;;;;;;;4789031;29;20717;-79
2021/01/13 08:33:19;;;;;;;5.20;2.63;;;;;;;;;;4791972;29;20252;-77
2021/01/13 08:35:49;;;;;;;5.07;2.47;;;;;;;;;;4794843;29;20319;-78
2021/01/13 08:38:18;;;;;;;3.97;1.90;;;;;;;;;;4791270;29;20217;-77
2021/01/13 08:40:47;;;;;;;3.83;2.63;;;;;;;;;;4782114;29;20248;-79
2021/01/13 08:43:16;;;;;;;4.50;3.37;;;;;;;;;;4785513;29;20233;-79
2021/01/13 08:45:45;;;;;;;4.70;2.83;;;;;;;;;;4772194;29;20328;-79
2021/01/13 08:48:14;;;;;;;4.17;3.00;;;;;;;;;;4760880;29;20236;-79
2021/01/13 08:50:43;;;;;;;5.10;3.00;;;;;;;;;;4778522;29;20808;-79
2021/01/13 08:53:24;;;;;;;6.93;2.50;;;;;;;;;;4777133;29;20247;-80
2021/01/13 08:55:54;;;;;;;4.77;2.73;;;;;;;;;;4793337;29;20232;-79
2021/01/13 08:58:27;;;;;;;5.47;2.63;;;;;;;;;;4779409;29;20707;-79
2021/01/13 09:01:02;;;;;;;6.03;2.40;;;;;;;;;;4786585;29;20244;-79
2021/01/13 09:03:35;;;;;;;5.07;2.67;;;;;;;;;;4789140;29;20236;-79
2021/01/13 09:06:19;;;;;;;5.73;2.47;;;;;;;;;;4772187;29;20229;-80
2021/01/13 09:08:48;;;;;;;3.33;2.40;;;;;;;;;;4781876;29;20233;-79
2021/01/13 09:11:33;;;;;;;5.97;2.70;;;;;;;;;;4801179;29;20709;-78
2021/01/13 09:14:18;;;;;;;5.13;2.50;;;;;;;;;;4783732;29;20247;-79
2021/01/13 09:16:49;;;;;;;4.87;2.60;;;;;;;;;;4781889;29;20236;-79
2021/01/13 09:19:37;;;;;;;4.43;2.70;;;;;;;;;;4775218;29;20612;-79
2021/01/13 09:22:07;;;;;;;5.77;3.30;;;;;;;;;;4785084;29;20435;-79
2021/01/13 09:24:36;;;;;;;4.83;2.67;;;;;;;;;;4786605;29;20490;-79
2021/01/13 09:27:07;;;;;;;3.90;2.73;;;;;;;;;;4787293;29;20240;-80
2021/01/13 09:29:47;;;;;;;4.60;3.10;;;;;;;;;;4782997;29;20224;-79
2021/01/13 09:32:16;;;;;;;3.37;2.60;;;;;;;;;;4782744;29;20236;-80
2021/01/13 09:34:46;;;;;;;3.83;2.87;;;;;;;;;;4777913;29;20621;-78
2021/01/13 09:37:14;;;;;;;4.37;2.63;;;;;;;;;;4778331;29;20233;-79
2021/01/13 09:39:56;;;;;;;4.13;2.50;;;;;;;;;;4784420;29;20229;-79
2021/01/13 09:42:36;;;;;;;4.70;2.83;;;;;;;;;;4794485;29;20244;-79
2021/01/13 09:45:06;;;;;;;5.07;2.40;;;;;;;;;;4793543;29;20232;-79
2021/01/13 09:47:35;;;;;;;3.87;2.40;;;;;;;;;;4790120;29;20236;-78
2021/01/13 09:50:05;;;;;;;4.40;2.77;;;;;;;;;;4783163;29;20240;-79
2021/01/13 09:52:39;;;;;;;4.40;2.50;;;;;;;;;;4793806;29;20253;-79
2021/01/13 09:55:08;;;;;;;4.73;3.40;;;;;;;;;;4787089;29;20240;-79
2021/01/13 09:57:38;;;;;;;4.43;2.53;;;;;;;;;;4785516;29;20239;-79
2021/01/13 10:00:07;;;;;;;3.57;2.27;;;;;;;;;;4794055;29;20245;-79
2021/01/13 10:02:42;;;;;;;4.77;2.83;;;;;;;;;;4763911;30;20261;-78
2021/01/13 10:05:12;;;;;;;4.30;2.67;;;;;;;;;;4789600;29;20237;-78
2021/01/13 10:07:40;;;;;;;6.10;2.63;;;;;;;;;;4769851;29;20263;-79
2021/01/13 10:10:09;;;;;;;3.13;2.60;;;;;;;;;;4776393;29;20244;-78
2021/01/13 10:12:39;;;;;;;3.10;2.10;;;;;;;;;;4787544;29;20236;-79
2021/01/13 10:15:10;;;;;;;3.70;2.70;;;;;;;;;;4784266;29;20233;-79
2021/01/13 10:17:39;;;;;;;2.93;2.60;;;;;;;;;;4787128;29;20237;-79
2021/01/13 10:20:12;;;;;;;9.17;2.53;;;;;;;;;;4773295;29;20767;-79
2021/01/13 10:22:41;;;;;;;4.17;3.00;;;;;;;;;;4790035;29;20249;-80
2021/01/13 10:25:10;;;;;;;3.70;2.70;;;;;;;;;;4790700;29;20244;-80
2021/01/13 10:27:43;;;;;;;4.17;2.97;;;;;;;;;;4791326;29;20255;-79
2021/01/13 10:30:12;;;;;;;4.07;2.80;;;;;;;;;;4791106;29;20228;-78
2021/01/13 10:32:47;;;;;;;5.20;2.53;;;;;;;;;;4797861;29;20221;-78
2021/01/13 10:35:17;;;;;;;4.10;2.73;;;;;;;;;;4800905;29;20228;-79
2021/01/13 10:37:50;;;;;;;4.13;2.73;;;;;;;;;;4775549;29;20245;-78
2021/01/13 10:40:19;;;;;;;4.73;2.70;;;;;;;;;;4775974;29;20616;-79
2021/01/13 10:42:51;;;;;;;5.17;2.63;;;;;;;;;;4790827;29;20248;-80
2021/01/13 10:45:20;;;;;;;4.20;2.83;;;;;;;;;;4773961;29;20237;-79
2021/01/13 10:47:56;;;;;;;3.53;2.53;;;;;;;;;;4781416;29;20251;-79
2021/01/13 10:50:26;;;;;;;4.07;2.50;;;;;;;;;;4777398;29;20741;-79
2021/01/13 10:52:55;;;;;;;4.63;2.20;;;;;;;;;;4784631;29;20244;-79
2021/01/13 10:55:32;;;;;;;3.40;2.80;;;;;;;;;;4789513;29;20362;-82
2021/01/13 10:58:02;;;;;;;3.57;2.73;;;;;;;;;;4775129;29;20613;-80
2021/01/13 11:00:30;;;;;;;3.67;2.73;;;;;;;;;;4761153;29;20229;-78
2021/01/13 11:03:00;;;;;;;3.60;2.57;;;;;;;;;;4748163;29;20246;-79
2021/01/13 11:05:28;;;;;;;4.27;2.53;;;;;;;;;;4784931;29;20236;-80
2021/01/13 11:07:57;;;;;;;3.47;2.40;;;;;;;;;;4776280;29;20240;-79
2021/01/13 11:10:25;;;;;;;3.03;2.47;;;;;;;;;;4777656;29;20241;-82
2021/01/13 11:13:00;;;;;;;3.10;2.80;;;;;;;;;;4778651;29;20243;-81
2021/01/13 11:15:29;;;;;;;3.37;2.63;;;;;;;;;;4778144;29;20235;-81
2021/01/13 11:17:57;;;;;;;4.37;2.57;;;;;;;;;;4784042;29;21760;-81
2021/01/13 11:20:29;;;;;;;4.73;2.80;;;;;;;;;;4781406;29;20236;-78
2021/01/13 11:22:58;;;;;;;3.80;2.13;;;;;;;;;;4787820;29;20249;-81
2021/01/13 11:25:30;;;;;;;4.10;2.83;;;;;;;;;;4790485;29;20242;-78
2021/01/13 11:28:00;;;;;;;5.07;2.40;;;;;;;;;;4786593;29;20249;-80
2021/01/13 11:30:29;;;;;;;3.27;2.70;;;;;;;;;;4776456;29;20226;-79
2021/01/13 11:32:58;;;;;;;3.00;2.60;;;;;;;;;;4780063;29;21352;-82
2021/01/13 11:35:27;;;;;;;2.97;2.47;;;;;;;;;;4786675;29;20228;-80
2021/01/13 11:38:33;;;;;;;3.07;2.73;;;;;;;;;;4806193;29;20220;-79
2021/01/13 11:41:24;;;;;;;3.13;2.53;;;;;;;;;;4779142;29;20247;-80
2021/01/13 11:44:25;;;;;;;3.87;2.53;;;;;;;;;;4791799;29;20242;-77
2021/01/13 11:47:07;;;;;;;3.77;3.00;;;;;;;;;;4769742;29;20219;-79
2021/01/13 11:49:44;;;;;;;2.77;2.50;;;;;;;;;;4793579;29;20244;-79
2021/01/13 11:52:15;;;;;;;5.03;2.97;;;;;;;;;;4782072;29;20363;-79
2021/01/13 11:54:47;;;;;;;3.90;2.53;;;;;;;;;;4780983;29;20632;-79
2021/01/13 11:57:26;;;;;;;4.30;2.93;;;;;;;;;;4780647;29;20228;-79
2021/01/13 11:59:55;;;;;;;3.03;2.63;;;;;;;;;;4798340;29;20612;-80
2021/01/13 12:02:26;;;;;;;2.60;2.07;;;;;;;;;;4782413;29;20250;-80
2021/01/13 12:04:54;;;;;;;2.90;2.40;;;;;;;;;;4783746;29;20241;-80
2021/01/13 12:07:21;;;;;;;3.57;2.30;;;;;;;;;;4791540;29;20233;-80
2021/01/13 12:10:07;;;;;;;3.37;2.57;;;;;;;;;;4770257;29;20247;-80
2021/01/13 12:12:35;;;;;;;3.03;2.63;;;;;;;;;;4783895;29;20640;-79
2021/01/13 12:15:05;;;;;;;3.00;2.27;;;;;;;;;;4786679;29;20232;-79
2021/01/13 12:17:47;;;;;;;3.93;2.47;;;;;;;;;;4780080;29;20237;-80
2021/01/13 12:20:30;;;;;;;2.63;2.30;;;;;;;;;;4774426;29;20735;-79
2021/01/13 12:22:58;;;;;;;2.67;2.13;;;;;;;;;;4785815;29;20255;-79
2021/01/13 12:25:26;;;;;;;2.50;1.93;;;;;;;;;;4787890;29;20240;-79
2021/01/13 12:28:07;;;;;;;2.77;1.80;;;;;;;;;;4785820;29;20243;-79
2021/01/13 12:30:35;;;;;;;3.13;2.10;;;;;;;;;;4800366;29;20244;-79
2021/01/13 12:33:05;;;;;;;3.20;2.37;;;;;;;;;;4786224;29;20244;-79
2021/01/13 12:35:33;;;;;;;4.23;2.37;;;;;;;;;;4800704;29;20333;-80
2021/01/13 12:38:00;;;;;;;3.30;2.30;;;;;;;;;;4802280;29;20240;-80
2021/01/13 12:40:29;;;;;;;2.50;2.30;;;;;;;;;;4785792;29;20240;-80
2021/01/13 12:43:10;;;;;;;2.30;1.97;;;;;;;;;;4775047;29;20241;-80
2021/01/13 12:45:39;;;;;;;3.90;2.17;;;;;;;;;;4777015;29;20236;-80
2021/01/13 12:48:08;;;;;;;3.10;2.33;;;;;;;;;;4793131;29;20237;-81
2021/01/13 12:50:36;;;;;;;3.17;2.17;;;;;;;;;;4789421;29;20240;-80
2021/01/13 12:53:04;;;;;;;2.77;2.00;;;;;;;;;;4785375;29;20244;-80
2021/01/13 12:55:32;;;;;;;7.83;2.30;;;;;;;;;;4785858;29;20239;-79
2021/01/13 12:58:00;;;;;;;3.13;2.37;;;;;;;;;;4787385;29;20241;-81
2021/01/13 13:00:28;;;;;;;2.70;2.17;;;;;;;;;;4785656;29;20228;-80
2021/01/13 13:02:57;;;;;;;3.03;2.47;;;;;;;;;;4802227;29;20311;-79
2021/01/13 13:05:25;;;;;;;2.20;2.00;;;;;;;;;;4786650;29;20316;-80
2021/01/13 13:07:54;;;;;;;2.80;2.17;;;;;;;;;;4801782;29;20255;-81
2021/01/13 13:10:22;;;;;;;3.17;2.10;;;;;;;;;;4786157;29;20236;-80
2021/01/13 13:12:50;;;;;;;2.60;2.40;;;;;;;;;;4784561;29;20244;-80
2021/01/13 13:15:17;;;;;;;2.83;2.10;;;;;;;;;;4787766;29;20225;-80
2021/01/13 13:17:45;;;;;;;3.37;2.33;;;;;;;;;;4791881;29;20233;-80
2021/01/13 13:20:13;;;;;;;25.43;10.77;;;;;;;;;;4785212;29;20616;-81
2021/01/13 13:22:42;;;;;;;4.80;2.67;;;;;;;;;;4793113;29;20241;-79
2021/01/13 13:25:11;;;;;;;2.70;1.70;;;;;;;;;;4792364;29;20259;-80
2021/01/13 13:27:39;;;;;;;2.67;2.00;;;;;;;;;;4802692;29;20241;-80
2021/01/13 13:30:08;;;;;;;3.33;2.00;;;;;;;;;;4789882;29;20236;-79
2021/01/13 13:32:39;;;;;;;3.53;2.13;;;;;;;;;;4783422;29;20244;-79
2021/01/13 13:35:08;;;;;;;3.70;2.40;;;;;;;;;;4801906;29;20232;-80
2021/01/13 13:37:37;;;;;;;2.50;1.80;;;;;;;;;;4789618;29;20232;-79
2021/01/13 13:40:10;;;;;;;3.53;2.43;;;;;;;;;;4790821;29;20231;-80
2021/01/13 13:42:39;;;;;;;3.37;2.43;;;;;;;;;;4791279;29;20243;-80
2021/01/13 13:45:07;;;;;;;2.70;2.13;;;;;;;;;;4793406;29;20240;-82
2021/01/13 13:47:40;;;;;;;2.73;2.00;;;;;;;;;;4809083;29;20602;-80
2021/01/13 13:50:09;;;;;;;3.27;2.40;;;;;;;;;;4802208;29;20240;-79
2021/01/13 13:52:38;;;;;;;4.27;2.17;;;;;;;;;;4820183;29;20227;-80
2021/01/13 13:55:08;;;;;;;2.83;2.20;;;;;;;;;;4793536;29;20634;-80
2021/01/13 13:57:36;;;;;;;2.93;2.20;;;;;;;;;;4790022;29;20232;-80
2021/01/13 14:00:06;;;;;;;3.03;2.00;;;;;;;;;;4789281;29;20235;-80
2021/01/13 14:02:39;;;;;;;2.17;1.67;;;;;;;;;;4788144;29;20619;-80
2021/01/13 14:05:08;;;;;;;2.63;1.90;;;;;;;;;;4793881;29;20271;-80
2021/01/13 14:07:37;;;;;;;2.90;2.23;;;;;;;;;;4807879;29;20240;-80
2021/01/13 14:10:07;;;;;;;2.27;1.90;;;;;;;;;;4790037;29;20229;-80
2021/01/13 14:12:35;;;;;;;3.40;2.50;;;;;;;;;;4808034;29;20244;-80
2021/01/13 14:15:03;;;;;;;2.70;2.20;;;;;;;;;;4788437;29;20240;-80
2021/01/13 14:17:31;;;;;;;2.60;1.93;;;;;;;;;;4795528;29;20243;-80
2021/01/13 14:19:59;;;;;;;2.53;2.03;;;;;;;;;;4798683;29;20550;-80
2021/01/13 14:22:27;;;;;;;5.43;2.20;;;;;;;;;;4799253;29;20239;-80
2021/01/13 14:24:55;;;;;;;2.57;1.90;;;;;;;;;;4786140;29;20241;-80
2021/01/13 14:27:24;;;;;;;4.03;2.13;;;;;;;;;;4801366;29;20236;-80
2021/01/13 14:29:52;;;;;;;3.43;2.50;;;;;;;;;;4784726;29;20252;-80
2021/01/13 14:32:19;;;;;;;3.50;2.07;;;;;;;;;;4783575;29;20242;-80
2021/01/13 14:34:47;;;;;;;2.50;1.97;;;;;;;;;;4783243;29;20236;-80
2021/01/13 14:37:15;;;;;;;3.70;2.03;;;;;;;;;;4796732;29;20240;-80
2021/01/13 14:39:42;;;;;;;2.63;2.33;;;;;;;;;;4782629;29;20241;-80
2021/01/13 14:42:12;;;;;;;4.37;2.50;;;;;;;;;;4794652;29;20228;-80
2021/01/13 14:44:42;;;;;;;2.67;1.90;;;;;;;;;;4786405;30;20247;-79
2021/01/13 14:47:11;;;;;;;2.73;1.90;;;;;;;;;;4799288;29;20237;-80
2021/01/13 14:49:38;;;;;;;2.20;1.70;;;;;;;;;;4799583;29;20244;-80
2021/01/13 14:52:06;;;;;;;3.60;2.13;;;;;;;;;;4796802;29;20237;-80
2021/01/13 14:54:34;;;;;;;2.40;2.00;;;;;;;;;;4787542;29;20237;-80
2021/01/13 14:57:06;;;;;;;3.03;1.90;;;;;;;;;;4780717;29;20739;-80
2021/01/13 14:59:33;;;;;;;2.30;1.87;;;;;;;;;;4788391;29;20240;-80
2021/01/13 15:02:02;;;;;;;3.07;2.20;;;;;;;;;;4789157;29;20611;-80
2021/01/13 15:04:30;;;;;;;3.70;2.07;;;;;;;;;;4784239;29;20248;-80
2021/01/13 15:06:58;;;;;;;2.33;1.80;;;;;;;;;;4785367;29;20225;-80
2021/01/13 15:09:28;;;;;;;3.70;2.20;;;;;;;;;;4786209;29;20233;-80
2021/01/13 15:11:55;;;;;;;2.37;1.77;;;;;;;;;;4802353;29;20243;-80
2021/01/13 15:14:24;;;;;;;2.00;1.80;;;;;;;;;;4782737;29;20243;-80
2021/01/13 15:16:52;;;;;;;1.97;1.70;;;;;;;;;;4785484;29;20236;-80
2021/01/13 15:19:21;;;;;;;2.73;1.97;;;;;;;;;;4789859;29;20235;-80
2021/01/13 15:21:49;;;;;;;2.83;1.87;;;;;;;;;;4785981;29;20244;-80